Warwick, MA (01378)

4:55 AM EDT on April 18, 2015 (GMT -0400)
Maggies Farm | | Change Station
CLOSE
Current Station
Personal Weather Station
Location: Orange, MA
Elevation: 850 ft
Nearby Weather Stations
Active Advisory: Special Statement

Elev 850 ft 42.62 °N, 72.25 °W | Updated 42 seconds ago

Partly Cloudy
Partly Cloudy
39.4 °F
Feels Like 39 °F
N
0.0
Wind Variable Wind from SW
Gusts 0.0 mph

Today
High -- | Low -- °F
--% Chance of Precip.
Yesterday
High -- | Low -- °F
Precip. -- in
6:03 AM 7:34 PM
Waning Crescent, 0% visible
Pressure 29.94 in
Visibility 10.0 miles
Clouds Mostly Cloudy 300 ft
Windchill 39 °F
Dew Point 39 °F
Humidity 99%
Rainfall 0.00 in
Snow Depth Not available.
UV 0 out of 12
Pollen 7.20 out of 12
Air Quality Not available.
Flu Activity Widespread
SPECI KORE 180810Z AUTO 00000KT 10SM BKN003 02/02 A2994 RMK AO2 T00220017

More Conditions Fewer Conditions

Pressure 29.94 in
Visibility 10.0 miles
Clouds Mostly Cloudy 300 ft
Windchill 39 °F
Dew Point 39 °F
Humidity 99%
Rainfall 0.00 in
Snow Depth Not available.
UV 0 out of 12
Pollen 7.20 out of 12
Air Quality Not available.
Flu Activity Widespread
SPECI KORE 180810Z AUTO 00000KT 10SM BKN003 02/02 A2994 RMK AO2 T00220017

More Conditions Fewer Conditions

10-Day Weather Forecast

Almanac

Astronomy

Apr. 18, 2015 Rise Set
Actual Time
Civil Twilight
Nautical Twilight
Astronomical Twilight
Moon
Length of Visible Light
Length of Day
Tomorrow will be .
, % of the Moon is Illuminated

Today's Extremes

State Highs State Lows

Community

WunderPhotos

Upload Photos

1,814,345 photos uploaded!

WunderBlogs® & News

Nearby

Air Quality

  Air Quality AQ Index Pollutant
Not available.

Snow Depth

Station Depth Elevation

Earthquake Activity

City Distance Mag. Time & Date
Minimum magnitude displayed is 2.5.

Coastal Water Temperatures

Place Temperature

Stations

Nearby Weather Stations

Station Location Temp. Windchill Dew Point Humidity Wind Precip. Elev Updated Type
                   
Special Statement
Statement as of 4:27 AM EDT on April 18, 2015

... Elevated fire weather potential today...

There is the potential for elevated fire weather conditions today
across central and eastern interior Massachusetts as well as
northwest Rhode Island.

As temperatures warm into the low-70s by midday... relative humidity
values will to drop as low as 20 percent. Combined with breezy west-
northwest winds during the afternoon into evening hours sustained
around 15 mph with gusts around 25 mph... there is an elevated fire
risk considering the dry fuels and lack of rainfall across the
region as of late.

Caution should be used if any open burning is planned.


Sipprell